Time;durP1;ratioP1;P1;durP2;ratioP2;P2;SDS_P1;SDS_P2;PMS_P1;PMS_P2;Temp;Humidity;BMP_temperature;BMP_pressure;BME280_temperature;BME280_humidity;BME280_pressure;Samples;Min_cycle;Max_cycle;Signal;HPM_P1;HPM_P2
2023/09/30 00:02:12;;;;;;;6.63;4.07;;;;;;;;;;4918726;29;20620;-67
2023/09/30 00:04:38;;;;;;;8.27;4.18;;;;;;;;;;4918033;29;20028;-73
2023/09/30 00:07:04;;;;;;;5.45;4.32;;;;;;;;;;4918734;29;20099;-67
2023/09/30 06:39:40;;;;;;;3.13;2.92;;;;;;;;;;5696257;23;20130;-66
2023/09/30 06:42:07;;;;;;;4.13;3.70;;;;;;;;;;4954108;29;20562;-67
2023/09/30 06:44:32;;;;;;;4.00;3.60;;;;;;;;;;4954149;28;20118;-67
2023/09/30 06:46:58;;;;;;;4.03;3.63;;;;;;;;;;4951208;28;20063;-67
2023/09/30 06:49:24;;;;;;;4.18;3.78;;;;;;;;;;4927856;29;20031;-67
2023/09/30 06:51:49;;;;;;;4.13;3.58;;;;;;;;;;4944588;28;20031;-69
2023/09/30 06:54:15;;;;;;;3.97;3.58;;;;;;;;;;4963752;28;20038;-67
2023/09/30 06:56:41;;;;;;;3.88;3.58;;;;;;;;;;4963656;28;20023;-67
2023/09/30 06:59:06;;;;;;;3.72;3.42;;;;;;;;;;4962237;28;20020;-67
2023/09/30 07:01:32;;;;;;;3.90;3.50;;;;;;;;;;4964292;28;20011;-67
2023/09/30 07:03:57;;;;;;;3.63;3.33;;;;;;;;;;4965673;28;20019;-67
2023/09/30 07:06:26;;;;;;;4.05;3.60;;;;;;;;;;4949041;28;20019;-67
2023/09/30 07:08:52;;;;;;;4.68;3.85;;;;;;;;;;4962488;28;20114;-67
2023/09/30 07:11:27;;;;;;;3.80;3.50;;;;;;;;;;4966993;28;20110;-67
2023/09/30 07:13:52;;;;;;;3.90;3.60;;;;;;;;;;4957621;29;20062;-69
2023/09/30 07:16:18;;;;;;;3.97;3.67;;;;;;;;;;4957793;29;20059;-67
2023/09/30 07:18:44;;;;;;;3.90;3.50;;;;;;;;;;4957800;28;20444;-67
2023/09/30 07:21:09;;;;;;;5.25;3.42;;;;;;;;;;4957512;28;20407;-66
2023/09/30 07:23:35;;;;;;;4.35;3.95;;;;;;;;;;4957443;28;20036;-67
2023/09/30 07:26:00;;;;;;;3.30;3.00;;;;;;;;;;4957337;29;20038;-66
2023/09/30 07:28:26;;;;;;;3.42;3.13;;;;;;;;;;4957321;29;20117;-67
2023/09/30 07:30:52;;;;;;;3.13;2.83;;;;;;;;;;4957264;29;20036;-68
2023/09/30 07:33:17;;;;;;;4.53;3.08;;;;;;;;;;4957556;28;20038;-68
2023/09/30 07:35:43;;;;;;;3.22;3.03;;;;;;;;;;4957196;29;20034;-68
2023/09/30 07:38:09;;;;;;;3.75;3.45;;;;;;;;;;4957289;29;20380;-67
2023/09/30 07:40:34;;;;;;;3.70;3.40;;;;;;;;;;4957023;28;20079;-68
2023/09/30 07:43:00;;;;;;;3.30;3.00;;;;;;;;;;4957457;29;20031;-68
2023/09/30 07:45:26;;;;;;;3.40;3.10;;;;;;;;;;4957115;29;20364;-67
2023/09/30 07:47:51;;;;;;;3.70;3.40;;;;;;;;;;4957046;28;20089;-67
2023/09/30 07:50:17;;;;;;;3.35;3.05;;;;;;;;;;4957132;28;20098;-67
2023/09/30 07:52:43;;;;;;;3.72;3.42;;;;;;;;;;4956905;29;20113;-67
2023/09/30 07:55:09;;;;;;;3.63;3.33;;;;;;;;;;4957101;28;20074;-67
2023/09/30 07:57:35;;;;;;;3.60;3.30;;;;;;;;;;4956803;28;20058;-67
2023/09/30 08:00:03;;;;;;;3.53;3.22;;;;;;;;;;4956753;29;20059;-67
2023/09/30 08:02:33;;;;;;;3.40;3.10;;;;;;;;;;4956817;28;20090;-67
2023/09/30 08:05:02;;;;;;;3.40;3.20;;;;;;;;;;4956642;29;20099;-67
2023/09/30 08:07:27;;;;;;;3.40;3.10;;;;;;;;;;4956579;29;20029;-67
2023/09/30 08:09:53;;;;;;;3.65;3.35;;;;;;;;;;4956550;28;20106;-67
2023/09/30 08:12:19;;;;;;;3.50;3.20;;;;;;;;;;4956483;29;20035;-67
2023/09/30 08:14:44;;;;;;;3.70;3.40;;;;;;;;;;4956397;28;20023;-66
2023/09/30 08:17:10;;;;;;;5.03;3.30;;;;;;;;;;4956474;29;20023;-67
2023/09/30 08:19:37;;;;;;;3.58;3.28;;;;;;;;;;4956626;29;20039;-67
2023/09/30 08:22:06;;;;;;;3.83;3.45;;;;;;;;;;4956423;28;20057;-67
2023/09/30 08:24:32;;;;;;;3.83;3.47;;;;;;;;;;4956567;29;20034;-67
2023/09/30 08:26:57;;;;;;;3.50;3.20;;;;;;;;;;4956277;28;20035;-67
2023/09/30 08:29:23;;;;;;;4.43;3.50;;;;;;;;;;4956236;29;20054;-67
2023/09/30 08:31:50;;;;;;;3.70;3.40;;;;;;;;;;4956467;29;20020;-68
2023/09/30 08:34:17;;;;;;;4.30;3.90;;;;;;;;;;4956159;28;20567;-68
2023/09/30 08:36:42;;;;;;;3.75;3.45;;;;;;;;;;4956199;29;20050;-67
2023/09/30 08:39:10;;;;;;;3.50;3.20;;;;;;;;;;4958198;28;20035;-69
2023/09/30 08:41:36;;;;;;;3.85;3.45;;;;;;;;;;4966481;28;20023;-69
2023/09/30 08:44:03;;;;;;;3.72;3.40;;;;;;;;;;4965180;28;20029;-68
2023/09/30 08:46:33;;;;;;;3.80;3.50;;;;;;;;;;4954669;29;20078;-66
2023/09/30 08:49:04;;;;;;;3.30;3.00;;;;;;;;;;4955672;28;20024;-67
2023/09/30 08:51:30;;;;;;;3.60;3.30;;;;;;;;;;4956639;28;20079;-68
2023/09/30 08:53:57;;;;;;;3.35;3.13;;;;;;;;;;4953077;28;20503;-68
2023/09/30 08:56:27;;;;;;;3.75;3.45;;;;;;;;;;4953389;28;20035;-68
2023/09/30 08:58:57;;;;;;;3.40;3.10;;;;;;;;;;4959823;28;20035;-67
2023/09/30 09:01:25;;;;;;;3.67;3.35;;;;;;;;;;4963872;28;20501;-69
2023/09/30 09:03:52;;;;;;;3.53;3.22;;;;;;;;;;4955155;29;20483;-68
2023/09/30 09:06:20;;;;;;;3.80;3.40;;;;;;;;;;4955014;29;20158;-67
2023/09/30 09:08:45;;;;;;;3.30;3.00;;;;;;;;;;4961998;28;20027;-67
2023/09/30 09:11:11;;;;;;;3.83;3.53;;;;;;;;;;4959285;28;20031;-67
2023/09/30 09:13:53;;;;;;;4.50;3.33;;;;;;;;;;4955188;28;20094;-68
2023/09/30 09:16:19;;;;;;;4.00;3.40;;;;;;;;;;4955252;28;20023;-69
2023/09/30 09:18:47;;;;;;;3.67;3.30;;;;;;;;;;4963793;28;20365;-68
2023/09/30 09:21:17;;;;;;;3.70;3.40;;;;;;;;;;4952060;28;20484;-69
2023/09/30 09:23:45;;;;;;;3.40;3.05;;;;;;;;;;4964120;28;20027;-67
2023/09/30 09:26:13;;;;;;;3.58;3.28;;;;;;;;;;4974323;28;20022;-70
2023/09/30 09:28:39;;;;;;;3.33;3.08;;;;;;;;;;4974428;28;20030;-68
2023/09/30 09:31:28;;;;;;;4.18;3.40;;;;;;;;;;4974578;28;20035;-68
2023/09/30 09:33:54;;;;;;;3.83;3.42;;;;;;;;;;4974278;28;20023;-67
2023/09/30 09:36:20;;;;;;;4.18;3.33;;;;;;;;;;4974285;28;20026;-67
2023/09/30 09:38:48;;;;;;;3.78;3.40;;;;;;;;;;4956915;28;20035;-68
2023/09/30 09:41:14;;;;;;;3.30;3.00;;;;;;;;;;4970677;28;20051;-71
2023/09/30 09:43:43;;;;;;;3.40;3.10;;;;;;;;;;4958454;28;20039;-71
2023/09/30 09:46:09;;;;;;;3.50;3.20;;;;;;;;;;4956058;28;20111;-70
2023/09/30 09:48:36;;;;;;;4.10;3.30;;;;;;;;;;4956258;28;20062;-69
2023/09/30 09:51:04;;;;;;;3.38;3.08;;;;;;;;;;4953958;28;20031;-70
2023/09/30 09:53:33;;;;;;;5.50;3.38;;;;;;;;;;4950466;28;20055;-71
2023/09/30 09:56:00;;;;;;;3.60;3.10;;;;;;;;;;4950074;28;20019;-71
2023/09/30 09:58:31;;;;;;;4.80;3.28;;;;;;;;;;4937650;29;20511;-70
2023/09/30 10:00:58;;;;;;;4.05;3.20;;;;;;;;;;4956082;28;20075;-69
2023/09/30 10:03:24;;;;;;;3.53;3.22;;;;;;;;;;4954315;29;20023;-70
2023/09/30 10:05:49;;;;;;;3.38;3.08;;;;;;;;;;4954489;29;20117;-70
2023/09/30 10:08:17;;;;;;;3.28;2.97;;;;;;;;;;4954412;28;20027;-69
2023/09/30 10:10:45;;;;;;;3.42;3.13;;;;;;;;;;4953065;28;20122;-69
2023/09/30 10:13:49;;;;;;;4.82;3.10;;;;;;;;;;4954490;29;20094;-70
2023/09/30 10:16:36;;;;;;;3.30;3.00;;;;;;;;;;4951704;29;20043;-68
2023/09/30 10:19:22;;;;;;;4.13;3.58;;;;;;;;;;4954741;28;20054;-68
2023/09/30 10:22:27;;;;;;;3.67;3.10;;;;;;;;;;4954461;29;20078;-68
2023/09/30 10:25:00;;;;;;;4.68;3.10;;;;;;;;;;4954505;29;20419;-70
2023/09/30 10:27:31;;;;;;;3.47;3.17;;;;;;;;;;4954319;29;20395;-71
2023/09/30 10:30:23;;;;;;;5.55;3.40;;;;;;;;;;4954292;29;20086;-70
2023/09/30 10:32:51;;;;;;;3.33;3.03;;;;;;;;;;4937317;29;20059;-68
2023/09/30 10:35:20;;;;;;;3.42;3.13;;;;;;;;;;4954005;29;20455;-68
2023/09/30 10:37:46;;;;;;;3.87;2.83;;;;;;;;;;4953741;28;20485;-69
2023/09/30 10:40:28;;;;;;;4.05;3.13;;;;;;;;;;4957202;28;20062;-68
2023/09/30 10:42:57;;;;;;;3.53;3.22;;;;;;;;;;4957528;28;20504;-68
2023/09/30 10:45:42;;;;;;;8.43;3.63;;;;;;;;;;4956551;29;20019;-69
2023/09/30 10:48:31;;;;;;;8.23;4.25;;;;;;;;;;4954700;29;20027;-68
2023/09/30 10:51:00;;;;;;;6.18;5.30;;;;;;;;;;4956842;29;20035;-68
2023/09/30 10:53:29;;;;;;;5.70;4.47;;;;;;;;;;4956968;28;20086;-68
2023/09/30 10:55:55;;;;;;;5.43;4.20;;;;;;;;;;4957358;28;20109;-68
2023/09/30 10:58:21;;;;;;;4.50;4.10;;;;;;;;;;4957659;28;20024;-68
2023/09/30 11:00:56;;;;;;;7.40;4.15;;;;;;;;;;4957887;29;20114;-68
2023/09/30 11:03:22;;;;;;;3.78;3.47;;;;;;;;;;4957810;28;20030;-68
2023/09/30 11:05:48;;;;;;;5.65;4.10;;;;;;;;;;4957806;29;20039;-68
2023/09/30 11:08:17;;;;;;;3.80;3.42;;;;;;;;;;4957687;28;20027;-67
2023/09/30 11:10:53;;;;;;;3.95;3.50;;;;;;;;;;4958139;28;20032;-69
2023/09/30 11:13:19;;;;;;;6.18;3.63;;;;;;;;;;4957882;29;20019;-67
2023/09/30 11:15:45;;;;;;;4.07;3.67;;;;;;;;;;4957616;29;20027;-67
2023/09/30 11:18:18;;;;;;;5.75;3.88;;;;;;;;;;4957553;29;20045;-68
2023/09/30 11:20:44;;;;;;;5.68;3.53;;;;;;;;;;4940199;29;20059;-68
2023/09/30 11:23:11;;;;;;;7.53;3.72;;;;;;;;;;4957678;28;20106;-67
2023/09/30 11:25:39;;;;;;;4.20;3.80;;;;;;;;;;4957706;28;20024;-68
2023/09/30 11:28:15;;;;;;;5.45;4.15;;;;;;;;;;4957369;29;20030;-67
2023/09/30 11:31:00;;;;;;;7.18;3.53;;;;;;;;;;4957472;28;20027;-67
2023/09/30 11:33:26;;;;;;;6.43;4.00;;;;;;;;;;4957560;29;20528;-67
2023/09/30 11:36:02;;;;;;;4.22;3.83;;;;;;;;;;4957211;29;20041;-67
2023/09/30 11:38:28;;;;;;;4.22;3.83;;;;;;;;;;4957255;28;20027;-67
2023/09/30 11:41:05;;;;;;;5.32;4.10;;;;;;;;;;4956760;29;20122;-67
2023/09/30 11:43:34;;;;;;;4.32;3.85;;;;;;;;;;4957055;29;20027;-67
2023/09/30 11:46:13;;;;;;;4.45;3.97;;;;;;;;;;4956937;29;20026;-67
2023/09/30 11:48:55;;;;;;;3.97;3.65;;;;;;;;;;4956523;28;20393;-68
2023/09/30 11:51:24;;;;;;;5.32;3.90;;;;;;;;;;4957029;29;20388;-68
2023/09/30 11:53:50;;;;;;;4.15;3.75;;;;;;;;;;4956834;29;20392;-67
2023/09/30 11:56:16;;;;;;;6.85;3.67;;;;;;;;;;4956725;28;20110;-67
2023/09/30 11:58:42;;;;;;;6.22;3.85;;;;;;;;;;4956639;28;20461;-68
2023/09/30 12:01:10;;;;;;;5.30;4.10;;;;;;;;;;4956676;28;20119;-68
2023/09/30 12:03:39;;;;;;;6.68;4.20;;;;;;;;;;4956725;28;20031;-69
2023/09/30 12:06:13;;;;;;;4.15;3.75;;;;;;;;;;4956621;28;20078;-67
2023/09/30 12:08:39;;;;;;;4.45;3.85;;;;;;;;;;4956547;29;20090;-67
2023/09/30 12:11:05;;;;;;;5.07;3.83;;;;;;;;;;4956437;28;20480;-67
2023/09/30 12:13:31;;;;;;;4.88;3.65;;;;;;;;;;4956514;28;20074;-67
2023/09/30 12:15:57;;;;;;;7.22;4.10;;;;;;;;;;4939103;29;20023;-69
2023/09/30 12:18:26;;;;;;;4.43;3.97;;;;;;;;;;4956303;29;20034;-67
2023/09/30 12:20:52;;;;;;;5.03;3.65;;;;;;;;;;4956248;29;20561;-67
2023/09/30 12:23:18;;;;;;;6.20;3.90;;;;;;;;;;4956295;29;20069;-66
2023/09/30 12:25:44;;;;;;;5.85;4.18;;;;;;;;;;4956247;29;20678;-67
2023/09/30 12:28:09;;;;;;;5.25;4.05;;;;;;;;;;4956242;29;20031;-69
2023/09/30 12:30:35;;;;;;;5.43;3.97;;;;;;;;;;4955940;28;20031;-70
2023/09/30 12:33:01;;;;;;;4.13;3.80;;;;;;;;;;4956262;28;20027;-67
2023/09/30 12:35:27;;;;;;;4.40;3.83;;;;;;;;;;4956028;28;20484;-67
2023/09/30 12:37:52;;;;;;;4.25;3.83;;;;;;;;;;4956043;29;20104;-70
2023/09/30 12:40:18;;;;;;;9.55;3.75;;;;;;;;;;4955784;28;20055;-67
2023/09/30 12:42:44;;;;;;;4.47;3.95;;;;;;;;;;4955762;28;20484;-67
2023/09/30 12:45:11;;;;;;;5.85;3.47;;;;;;;;;;4955884;29;20118;-68
2023/09/30 12:47:36;;;;;;;6.85;4.07;;;;;;;;;;4955994;29;20035;-67
2023/09/30 12:50:03;;;;;;;4.22;3.78;;;;;;;;;;4955931;29;20118;-67
2023/09/30 12:52:30;;;;;;;4.15;3.70;;;;;;;;;;4955655;28;20034;-67
2023/09/30 12:54:55;;;;;;;5.00;3.75;;;;;;;;;;4955700;29;20043;-69
2023/09/30 12:57:21;;;;;;;4.95;4.13;;;;;;;;;;4955662;29;20035;-68
2023/09/30 12:59:49;;;;;;;5.97;3.92;;;;;;;;;;4955627;28;20043;-67
2023/09/30 13:02:15;;;;;;;4.68;3.83;;;;;;;;;;4955101;29;20023;-67
2023/09/30 13:04:43;;;;;;;5.97;3.90;;;;;;;;;;4955493;29;20030;-67
2023/09/30 13:07:12;;;;;;;4.75;3.90;;;;;;;;;;4955373;28;20086;-67
2023/09/30 13:09:41;;;;;;;5.00;3.87;;;;;;;;;;4938241;29;20364;-67
2023/09/30 13:12:07;;;;;;;10.48;4.15;;;;;;;;;;4955463;29;20769;-68
2023/09/30 13:14:33;;;;;;;7.22;4.20;;;;;;;;;;4955241;29;20023;-67
2023/09/30 13:16:58;;;;;;;5.07;3.92;;;;;;;;;;4955526;28;20031;-69
2023/09/30 13:19:24;;;;;;;4.65;3.88;;;;;;;;;;4955162;28;20024;-68
2023/09/30 13:21:51;;;;;;;4.85;4.00;;;;;;;;;;4955443;29;20034;-68
2023/09/30 13:24:17;;;;;;;4.85;4.07;;;;;;;;;;4955174;29;20042;-67
2023/09/30 13:26:42;;;;;;;4.30;3.90;;;;;;;;;;4955189;29;20365;-69
2023/09/30 13:29:10;;;;;;;5.22;3.95;;;;;;;;;;4955094;29;20107;-67
2023/09/30 13:31:38;;;;;;;4.97;3.80;;;;;;;;;;4954957;29;20058;-68
2023/09/30 13:34:05;;;;;;;4.45;4.05;;;;;;;;;;4954885;28;20023;-68
2023/09/30 13:36:31;;;;;;;5.45;3.88;;;;;;;;;;4954897;29;20026;-70
2023/09/30 13:38:56;;;;;;;5.20;3.40;;;;;;;;;;4954850;28;20024;-69
2023/09/30 13:41:22;;;;;;;4.85;4.10;;;;;;;;;;4954629;29;20054;-68
2023/09/30 13:43:48;;;;;;;4.95;4.30;;;;;;;;;;4954830;28;20070;-69
2023/09/30 13:46:13;;;;;;;4.50;3.80;;;;;;;;;;4954859;28;20031;-67
2023/09/30 13:48:39;;;;;;;6.10;3.83;;;;;;;;;;4954722;28;20019;-67
2023/09/30 13:51:08;;;;;;;4.30;3.90;;;;;;;;;;4954782;28;20081;-68
2023/09/30 13:53:34;;;;;;;3.80;3.50;;;;;;;;;;4954739;29;20031;-68
2023/09/30 13:56:00;;;;;;;5.03;4.05;;;;;;;;;;4954530;28;20039;-70
2023/09/30 13:58:26;;;;;;;5.32;4.07;;;;;;;;;;4954587;29;20024;-71
2023/09/30 14:00:56;;;;;;;7.55;4.82;;;;;;;;;;4954643;29;20039;-66
2023/09/30 14:03:24;;;;;;;7.47;4.85;;;;;;;;;;4954634;29;20054;-66
2023/09/30 14:05:50;;;;;;;10.13;5.53;;;;;;;;;;4954530;29;20031;-68
2023/09/30 14:08:16;;;;;;;6.47;5.03;;;;;;;;;;4954624;29;20034;-66
2023/09/30 14:10:44;;;;;;;13.55;5.90;;;;;;;;;;4954406;29;20500;-66
2023/09/30 14:13:10;;;;;;;10.70;5.80;;;;;;;;;;4954312;28;20472;-65
2023/09/30 14:15:36;;;;;;;15.40;6.25;;;;;;;;;;4954625;28;20110;-68
2023/09/30 14:18:03;;;;;;;13.02;6.72;;;;;;;;;;4954471;29;20488;-65
2023/09/30 14:20:28;;;;;;;11.82;6.53;;;;;;;;;;4954561;28;20062;-67
2023/09/30 14:22:57;;;;;;;11.65;6.95;;;;;;;;;;4954351;29;20099;-68
2023/09/30 14:25:22;;;;;;;14.50;7.30;;;;;;;;;;4954297;29;20476;-67
2023/09/30 14:27:48;;;;;;;12.75;6.78;;;;;;;;;;4954558;29;20086;-67
2023/09/30 14:30:15;;;;;;;17.27;8.15;;;;;;;;;;4954314;29;20027;-69
2023/09/30 14:32:41;;;;;;;17.65;8.07;;;;;;;;;;4954543;28;20035;-67
2023/09/30 14:35:09;;;;;;;17.52;8.55;;;;;;;;;;4954402;29;20031;-67
2023/09/30 14:37:37;;;;;;;23.90;9.00;;;;;;;;;;4954205;29;20023;-68
2023/09/30 14:40:10;;;;;;;18.05;8.35;;;;;;;;;;4954060;28;20051;-66
2023/09/30 14:42:36;;;;;;;18.33;9.35;;;;;;;;;;4953135;29;20035;-67
2023/09/30 14:45:02;;;;;;;21.98;8.77;;;;;;;;;;4953114;29;20111;-68
2023/09/30 14:47:28;;;;;;;18.13;9.82;;;;;;;;;;4954514;28;20110;-67
2023/09/30 14:49:54;;;;;;;23.38;10.25;;;;;;;;;;4954485;28;20119;-66
2023/09/30 14:52:19;;;;;;;20.38;9.50;;;;;;;;;;4952383;28;20026;-67
2023/09/30 14:54:45;;;;;;;19.35;8.93;;;;;;;;;;4950178;29;20030;-66
2023/09/30 14:57:12;;;;;;;22.02;10.07;;;;;;;;;;4953642;29;20109;-67
2023/09/30 14:59:37;;;;;;;24.42;10.48;;;;;;;;;;4954124;28;20035;-66
2023/09/30 15:02:03;;;;;;;22.05;9.52;;;;;;;;;;4954026;29;20039;-66
2023/09/30 15:04:29;;;;;;;18.63;9.82;;;;;;;;;;4953917;29;20045;-66
2023/09/30 15:06:55;;;;;;;23.23;10.75;;;;;;;;;;4954075;29;20383;-66
2023/09/30 15:09:20;;;;;;;26.25;10.15;;;;;;;;;;4953565;29;20035;-64
2023/09/30 15:11:46;;;;;;;23.85;10.43;;;;;;;;;;4953992;29;20042;-65
2023/09/30 15:14:11;;;;;;;25.45;10.77;;;;;;;;;;4956348;28;20025;-69
2023/09/30 15:16:37;;;;;;;23.83;10.30;;;;;;;;;;4953876;29;20035;-68
2023/09/30 15:19:03;;;;;;;24.42;10.55;;;;;;;;;;4953807;29;20027;-68
2023/09/30 15:21:28;;;;;;;23.88;10.20;;;;;;;;;;4953966;28;20082;-69
2023/09/30 15:23:54;;;;;;;22.40;10.77;;;;;;;;;;4954479;28;20395;-66
2023/09/30 15:26:19;;;;;;;24.77;10.48;;;;;;;;;;4957395;29;20027;-69
2023/09/30 15:28:45;;;;;;;22.20;10.02;;;;;;;;;;4963466;28;20093;-67
2023/09/30 15:31:11;;;;;;;20.40;10.65;;;;;;;;;;4959152;28;20037;-65
2023/09/30 15:33:37;;;;;;;25.02;11.23;;;;;;;;;;4959138;28;20027;-67
2023/09/30 15:36:13;;;;;;;26.55;11.38;;;;;;;;;;4976494;28;20023;-68
2023/09/30 15:38:38;;;;;;;24.33;10.88;;;;;;;;;;4976356;28;20041;-68
2023/09/30 15:41:04;;;;;;;24.10;10.52;;;;;;;;;;4976298;28;20043;-67
2023/09/30 15:43:32;;;;;;;26.00;11.27;;;;;;;;;;4976579;28;20023;-67
2023/09/30 15:45:58;;;;;;;20.23;10.02;;;;;;;;;;4957605;28;20109;-67
2023/09/30 15:48:24;;;;;;;27.05;10.80;;;;;;;;;;4957216;28;20500;-65
2023/09/30 15:50:50;;;;;;;25.63;10.75;;;;;;;;;;4957078;28;20043;-68
2023/09/30 15:53:16;;;;;;;25.35;9.73;;;;;;;;;;4956285;29;20178;-70
2023/09/30 15:55:41;;;;;;;27.38;10.98;;;;;;;;;;4967252;28;20387;-67
2023/09/30 15:58:08;;;;;;;22.48;10.30;;;;;;;;;;4960305;28;20595;-69
2023/09/30 16:00:38;;;;;;;27.90;10.95;;;;;;;;;;4970534;28;20510;-69
2023/09/30 16:03:05;;;;;;;21.00;9.68;;;;;;;;;;4958712;28;20034;-69
2023/09/30 16:05:37;;;;;;;27.88;9.88;;;;;;;;;;4952352;29;20114;-67
2023/09/30 16:08:04;;;;;;;26.10;12.45;;;;;;;;;;4956689;29;20019;-66
2023/09/30 16:10:30;;;;;;;25.17;11.32;;;;;;;;;;4956854;29;20436;-67
2023/09/30 16:12:56;;;;;;;28.20;11.52;;;;;;;;;;4956551;28;20035;-68
2023/09/30 16:15:21;;;;;;;26.70;12.20;;;;;;;;;;4956847;29;20387;-67
2023/09/30 16:17:47;;;;;;;24.50;11.80;;;;;;;;;;4956466;29;20484;-67
2023/09/30 16:20:13;;;;;;;23.02;11.38;;;;;;;;;;4956509;29;20023;-67
2023/09/30 16:22:38;;;;;;;26.08;11.27;;;;;;;;;;4957014;29;20023;-67
2023/09/30 16:25:05;;;;;;;26.38;12.25;;;;;;;;;;4956252;29;20023;-67
2023/09/30 16:27:34;;;;;;;31.58;12.43;;;;;;;;;;4956302;29;20089;-66
2023/09/30 16:30:00;;;;;;;22.30;11.07;;;;;;;;;;4956242;28;20031;-67
2023/09/30 16:32:26;;;;;;;29.98;10.95;;;;;;;;;;4956213;29;20068;-67
2023/09/30 16:34:51;;;;;;;24.65;10.73;;;;;;;;;;4955874;28;20023;-69
2023/09/30 16:37:17;;;;;;;32.13;12.05;;;;;;;;;;4955477;29;20035;-70
2023/09/30 16:39:42;;;;;;;28.75;11.23;;;;;;;;;;4956037;28;20058;-71
2023/09/30 16:42:08;;;;;;;21.85;10.57;;;;;;;;;;4956139;28;20039;-67
2023/09/30 16:44:33;;;;;;;19.92;10.35;;;;;;;;;;4938960;29;20023;-68
2023/09/30 16:46:59;;;;;;;28.30;10.85;;;;;;;;;;4955976;29;20024;-69
2023/09/30 16:49:25;;;;;;;22.42;10.13;;;;;;;;;;4955822;29;20019;-70
2023/09/30 16:51:50;;;;;;;19.95;9.48;;;;;;;;;;4963684;28;20388;-68
2023/09/30 16:54:16;;;;;;;23.45;10.15;;;;;;;;;;4974884;28;20034;-69
2023/09/30 16:56:43;;;;;;;21.63;10.38;;;;;;;;;;4975067;28;20027;-69
2023/09/30 16:59:09;;;;;;;25.33;10.95;;;;;;;;;;4957906;28;20050;-71
2023/09/30 17:01:37;;;;;;;20.45;9.82;;;;;;;;;;4975447;28;20497;-72
2023/09/30 17:04:03;;;;;;;20.42;9.80;;;;;;;;;;4975126;28;20037;-71
2023/09/30 17:06:28;;;;;;;24.70;11.15;;;;;;;;;;4974939;28;20077;-73
2023/09/30 17:08:54;;;;;;;24.70;9.90;;;;;;;;;;4974832;28;20023;-69
2023/09/30 17:11:21;;;;;;;31.30;11.60;;;;;;;;;;4961033;28;20039;-74
2023/09/30 17:13:47;;;;;;;21.15;9.93;;;;;;;;;;4965405;28;20475;-69
2023/09/30 17:16:22;;;;;;;17.73;9.10;;;;;;;;;;4957320;28;20177;-71
2023/09/30 17:18:48;;;;;;;22.27;9.73;;;;;;;;;;4974635;28;20098;-72
2023/09/30 17:21:14;;;;;;;22.77;10.30;;;;;;;;;;4957250;28;20023;-71
2023/09/30 17:23:43;;;;;;;21.17;10.32;;;;;;;;;;4974494;28;20023;-68
2023/09/30 17:26:09;;;;;;;24.13;9.85;;;;;;;;;;4969599;28;20027;-69
2023/09/30 17:28:35;;;;;;;18.20;9.23;;;;;;;;;;4962661;28;20027;-68
2023/09/30 17:31:05;;;;;;;23.55;10.63;;;;;;;;;;4945508;29;20469;-70
2023/09/30 17:33:34;;;;;;;;;;;;;;;;;;4955930;28;20416;-68
2023/09/30 17:36:01;;;;;;;20.67;9.20;;;;;;;;;;4955152;28;19910;-68
2023/09/30 17:38:30;;;;;;;23.52;10.05;;;;;;;;;;4937995;29;20056;-68
2023/09/30 17:41:07;;;;;;;20.63;10.23;;;;;;;;;;4957435;28;20068;-68
2023/09/30 17:43:34;;;;;;;18.90;8.55;;;;;;;;;;4963237;28;20094;-68
2023/09/30 17:46:14;;;;;;;23.25;10.50;;;;;;;;;;4962938;28;20056;-68
2023/09/30 17:48:41;;;;;;;19.08;10.35;;;;;;;;;;4951031;28;20035;-68
2023/09/30 17:51:11;;;;;;;21.02;10.00;;;;;;;;;;4944688;29;20031;-69
2023/09/30 17:53:37;;;;;;;23.52;10.13;;;;;;;;;;4944404;29;20016;-69
2023/09/30 17:56:03;;;;;;;22.65;9.90;;;;;;;;;;4945339;29;20038;-68
2023/09/30 17:58:28;;;;;;;23.08;10.70;;;;;;;;;;4943131;29;20024;-68
2023/09/30 18:00:55;;;;;;;19.35;9.80;;;;;;;;;;4939845;28;20028;-71
2023/09/30 18:03:21;;;;;;;24.38;10.07;;;;;;;;;;4944330;29;20480;-69
2023/09/30 18:05:46;;;;;;;18.85;9.02;;;;;;;;;;4942620;29;20035;-69
2023/09/30 18:08:12;;;;;;;24.38;10.90;;;;;;;;;;4944209;28;20039;-69
2023/09/30 18:10:38;;;;;;;19.45;9.45;;;;;;;;;;4943844;29;20034;-68
2023/09/30 18:13:05;;;;;;;20.23;10.25;;;;;;;;;;4948621;28;20074;-69
2023/09/30 18:15:31;;;;;;;18.23;9.90;;;;;;;;;;4973823;28;20019;-69
2023/09/30 18:17:57;;;;;;;21.60;10.70;;;;;;;;;;4956300;28;20122;-69
2023/09/30 18:20:23;;;;;;;22.77;10.70;;;;;;;;;;4973578;28;20114;-68
2023/09/30 18:22:50;;;;;;;22.88;10.18;;;;;;;;;;4973622;28;20045;-68
2023/09/30 18:25:16;;;;;;;24.23;11.10;;;;;;;;;;4973646;28;20023;-70
2023/09/30 18:27:41;;;;;;;23.85;10.02;;;;;;;;;;4973817;28;20041;-71
2023/09/30 18:30:08;;;;;;;21.98;9.73;;;;;;;;;;4973524;28;20058;-69
2023/09/30 18:32:35;;;;;;;20.35;9.85;;;;;;;;;;4973529;28;20070;-69
2023/09/30 18:35:00;;;;;;;22.38;10.02;;;;;;;;;;4973555;28;20038;-68
2023/09/30 18:37:27;;;;;;;20.17;9.68;;;;;;;;;;4973651;28;20030;-68
2023/09/30 18:39:53;;;;;;;20.88;10.13;;;;;;;;;;4973215;28;20059;-69
2023/09/30 18:42:21;;;;;;;21.63;10.30;;;;;;;;;;4956126;28;20034;-69
2023/09/30 18:44:46;;;;;;;18.02;9.50;;;;;;;;;;4973459;28;20027;-69
2023/09/30 18:47:12;;;;;;;18.92;9.52;;;;;;;;;;4973525;28;20150;-68
2023/09/30 18:49:37;;;;;;;17.40;9.30;;;;;;;;;;4973395;28;20054;-69
2023/09/30 18:52:03;;;;;;;22.73;10.10;;;;;;;;;;4973501;28;20147;-69
2023/09/30 18:54:28;;;;;;;21.67;10.88;;;;;;;;;;4973385;28;20054;-73
2023/09/30 18:56:55;;;;;;;22.95;9.77;;;;;;;;;;4973622;28;20023;-69
2023/09/30 18:59:22;;;;;;;20.15;10.50;;;;;;;;;;4974543;28;20062;-70
2023/09/30 19:01:51;;;;;;;21.02;10.45;;;;;;;;;;4977046;28;20035;-69
2023/09/30 19:04:17;;;;;;;19.92;9.43;;;;;;;;;;4976952;28;20031;-69
2023/09/30 19:06:45;;;;;;;21.17;9.98;;;;;;;;;;4977000;28;20106;-69
2023/09/30 19:09:11;;;;;;;22.02;9.95;;;;;;;;;;4977246;28;20048;-68
2023/09/30 19:11:37;;;;;;;20.83;10.27;;;;;;;;;;4969437;28;20118;-71
2023/09/30 19:14:06;;;;;;;21.77;9.98;;;;;;;;;;4957543;29;20098;-69
2023/09/30 19:16:31;;;;;;;23.27;10.35;;;;;;;;;;4957721;29;20456;-71
2023/09/30 19:18:57;;;;;;;22.83;9.15;;;;;;;;;;4957606;29;20023;-71
2023/09/30 19:21:23;;;;;;;18.70;9.57;;;;;;;;;;4957539;28;20063;-71
2023/09/30 19:23:48;;;;;;;21.15;9.32;;;;;;;;;;4957476;29;20446;-70
2023/09/30 19:26:15;;;;;;;20.95;9.88;;;;;;;;;;4957711;29;20035;-70
2023/09/30 19:28:42;;;;;;;20.63;9.45;;;;;;;;;;4957472;28;20054;-70
2023/09/30 19:31:15;;;;;;;26.42;10.45;;;;;;;;;;4957298;28;20087;-71
2023/09/30 19:33:42;;;;;;;22.05;9.57;;;;;;;;;;4957332;29;20032;-71
2023/09/30 19:36:09;;;;;;;21.92;9.65;;;;;;;;;;4957278;29;20016;-70
2023/09/30 19:38:36;;;;;;;19.95;9.73;;;;;;;;;;4957226;28;20027;-70
2023/09/30 19:41:02;;;;;;;24.25;10.23;;;;;;;;;;4957050;28;20122;-69
2023/09/30 19:43:28;;;;;;;25.13;11.10;;;;;;;;;;4957380;29;20031;-70
2023/09/30 19:46:01;;;;;;;23.08;10.93;;;;;;;;;;4957218;29;20106;-71
2023/09/30 19:48:26;;;;;;;22.58;10.35;;;;;;;;;;4969472;28;20070;-70
2023/09/30 19:50:52;;;;;;;20.55;10.43;;;;;;;;;;4973398;28;20529;-70
2023/09/30 19:53:18;;;;;;;23.02;10.90;;;;;;;;;;4956474;29;20027;-70
2023/09/30 19:55:43;;;;;;;19.50;9.82;;;;;;;;;;4966770;28;20011;-69
2023/09/30 19:58:09;;;;;;;18.58;9.80;;;;;;;;;;4966309;28;20027;-69
2023/09/30 20:00:39;;;;;;;22.63;10.18;;;;;;;;;;4960764;28;20054;-69
2023/09/30 20:03:05;;;;;;;19.90;9.88;;;;;;;;;;4959906;28;20110;-70
2023/09/30 20:05:31;;;;;;;20.08;9.43;;;;;;;;;;4969201;28;20023;-70
2023/09/30 20:07:57;;;;;;;21.65;10.45;;;;;;;;;;4965298;28;20019;-71
2023/09/30 20:10:23;;;;;;;21.35;10.55;;;;;;;;;;4975827;28;20388;-72
2023/09/30 20:12:48;;;;;;;22.08;10.38;;;;;;;;;;4975977;28;20472;-71
2023/09/30 20:15:14;;;;;;;25.50;10.10;;;;;;;;;;4970985;28;20027;-70
2023/09/30 20:17:39;;;;;;;23.35;10.07;;;;;;;;;;4947234;28;20029;-69
2023/09/30 20:20:06;;;;;;;20.45;9.90;;;;;;;;;;4946621;29;20026;-71
2023/09/30 20:22:32;;;;;;;21.60;9.95;;;;;;;;;;4945356;29;20021;-70
2023/09/30 20:25:01;;;;;;;23.85;10.73;;;;;;;;;;4956019;28;20031;-69
2023/09/30 20:27:27;;;;;;;25.00;10.65;;;;;;;;;;4956273;29;20030;-72
2023/09/30 20:29:53;;;;;;;22.83;9.98;;;;;;;;;;4956183;28;20066;-72
2023/09/30 20:32:18;;;;;;;20.48;9.88;;;;;;;;;;4956206;29;20062;-72
2023/09/30 20:34:44;;;;;;;21.88;10.80;;;;;;;;;;4956213;29;20106;-71
2023/09/30 20:37:09;;;;;;;22.17;10.55;;;;;;;;;;4956093;29;20638;-71
2023/09/30 20:39:36;;;;;;;25.20;10.23;;;;;;;;;;4955649;28;20043;-73
2023/09/30 20:42:03;;;;;;;19.58;9.73;;;;;;;;;;4953118;28;20058;-70
2023/09/30 20:44:29;;;;;;;17.65;9.60;;;;;;;;;;4956000;28;20055;-71
2023/09/30 20:46:55;;;;;;;20.42;10.13;;;;;;;;;;4956260;28;20126;-72
2023/09/30 20:49:21;;;;;;;21.08;9.98;;;;;;;;;;4955906;29;20480;-72
2023/09/30 20:51:47;;;;;;;22.88;9.70;;;;;;;;;;4952129;28;20126;-70
2023/09/30 20:54:12;;;;;;;24.23;10.55;;;;;;;;;;4954926;29;20078;-70
2023/09/30 20:56:37;;;;;;;22.08;9.95;;;;;;;;;;4955766;29;20031;-71
2023/09/30 20:59:05;;;;;;;25.17;9.88;;;;;;;;;;4943531;28;20035;-71
2023/09/30 21:01:32;;;;;;;18.75;9.35;;;;;;;;;;4929005;29;20039;-71
2023/09/30 21:03:57;;;;;;;21.25;8.85;;;;;;;;;;4949974;28;20027;-70
2023/09/30 21:06:23;;;;;;;18.42;9.35;;;;;;;;;;4955667;29;20392;-71